createdAt,value
2023-11-24T00:00:33.601Z,96962.15
2023-11-24T00:03:25.545Z,96958.64
2023-11-24T00:05:57.870Z,96944.99
2023-11-24T00:08:29.729Z,96943.79
2023-11-24T00:11:04.650Z,96950.79
2023-11-24T00:13:36.521Z,96941.82
2023-11-24T00:16:11.053Z,96941.27
2023-11-24T00:18:43.034Z,96944.52
2023-11-24T00:21:15.024Z,96937.69
2023-11-24T00:23:46.873Z,96939.06
2023-11-24T00:26:22.081Z,96936.89
2023-11-24T00:28:56.572Z,96940.36
2023-11-24T00:31:28.505Z,96940.41
2023-11-24T00:34:01.732Z,96947.16
2023-11-24T00:36:33.652Z,96943.38
2023-11-24T00:39:06.347Z,96949.91
2023-11-24T00:41:38.158Z,96953.11
2023-11-24T00:44:10.183Z,96955.83
2023-11-24T00:46:41.988Z,96953.48
2023-11-24T00:49:13.825Z,96958.05
2023-11-24T00:51:45.887Z,96959.77
2023-11-24T00:54:17.688Z,96957.77
2023-11-24T00:56:49.950Z,96959.63
2023-11-24T00:59:21.986Z,96960.76
2023-11-24T01:01:53.874Z,96959.69
2023-11-24T01:04:26.214Z,96953.49
2023-11-24T01:06:58.182Z,96982.10
2023-11-24T01:09:30.317Z,97015.55
2023-11-24T01:12:02.207Z,97043.64
2023-11-24T01:14:34.048Z,97051.19
2023-11-24T01:17:06.134Z,97091.87
2023-11-24T01:19:38.473Z,97101.63
2023-11-24T01:22:10.763Z,97102.13
2023-11-24T01:24:42.561Z,97080.30
2023-11-24T01:27:14.587Z,97069.27
2023-11-24T01:29:46.401Z,97058.98
2023-11-24T01:32:18.329Z,97060.73
2023-11-24T01:34:50.133Z,97059.38
2023-11-24T01:37:21.935Z,97054.77
2023-11-24T01:39:54.344Z,97056.02
2023-11-24T01:42:26.881Z,97054.67
2023-11-24T01:44:58.965Z,97052.79
2023-11-24T01:47:30.770Z,97055.98
2023-11-24T01:50:03.253Z,97051.58
2023-11-24T01:52:36.547Z,97049.67
2023-11-24T01:55:13.968Z,97052.11
2023-11-24T01:57:46.211Z,97053.21
2023-11-24T02:00:19.482Z,97046.65
2023-11-24T02:02:51.336Z,97039.05
2023-11-24T02:05:23.392Z,97027.59
2023-11-24T02:07:55.947Z,97020.34
2023-11-24T02:10:27.942Z,97016.73
2023-11-24T02:12:59.790Z,97017.99
2023-11-24T02:15:31.669Z,97007.58
2023-11-24T02:18:03.683Z,96995.15
2023-11-24T02:20:35.537Z,96986.62
2023-11-24T02:23:07.309Z,96975.98
2023-11-24T02:25:39.773Z,96963.75
2023-11-24T02:28:11.948Z,96957.90
2023-11-24T02:30:43.872Z,96947.45
2023-11-24T02:33:16.453Z,96954.41
2023-11-24T02:35:48.538Z,96953.80
2023-11-24T02:38:20.327Z,96969.13
2023-11-24T02:40:52.189Z,96973.40
2023-11-24T02:43:23.948Z,96978.40
2023-11-24T02:45:55.775Z,96989.64
2023-11-24T02:48:27.654Z,96996.36
2023-11-24T02:50:59.482Z,97001.39
2023-11-24T02:53:31.396Z,97008.89
2023-11-24T02:56:04.424Z,96989.99
2023-11-24T02:58:37.888Z,96992.27
2023-11-24T03:01:09.874Z,96977.54
2023-11-24T03:03:42.173Z,96962.73
2023-11-24T03:06:14.297Z,96969.33
2023-11-24T03:08:46.485Z,96969.11
2023-11-24T03:11:18.841Z,96973.94
2023-11-24T03:13:50.631Z,96978.83
2023-11-24T03:16:22.630Z,96980.48
2023-11-24T03:18:55.008Z,96983.45
2023-11-24T03:21:26.967Z,96963.41
2023-11-24T03:23:58.786Z,96956.40
2023-11-24T03:26:30.769Z,96947.23
2023-11-24T03:29:03.350Z,96943.54
2023-11-24T03:31:35.514Z,96935.34
2023-11-24T03:34:08.060Z,96918.06
2023-11-24T03:36:40.045Z,96914.86
2023-11-24T03:39:15.123Z,96915.20
2023-11-24T03:41:46.904Z,96910.61
2023-11-24T03:44:18.918Z,96909.17
2023-11-24T03:46:50.945Z,96915.10
2023-11-24T03:49:22.709Z,96910.23
2023-11-24T03:51:54.572Z,96901.27
2023-11-24T03:54:27.438Z,96902.05
2023-11-24T03:57:00.214Z,96894.31
2023-11-24T03:59:32.012Z,96908.16
2023-11-24T04:02:04.305Z,96905.58
2023-11-24T04:04:36.238Z,96908.23
2023-11-24T04:07:08.211Z,96917.25
2023-11-24T04:09:40.234Z,96912.73
2023-11-24T04:12:12.249Z,96893.22
2023-11-24T04:14:44.193Z,96895.13
2023-11-24T04:17:16.221Z,96904.23
2023-11-24T04:19:48.017Z,96899.88
2023-11-24T04:22:19.829Z,96894.39
2023-11-24T04:24:51.644Z,96889.63
2023-11-24T04:27:23.477Z,96892.50
2023-11-24T04:29:55.272Z,96890.58
2023-11-24T04:32:27.115Z,96871.47
2023-11-24T04:34:59.454Z,96873.30
2023-11-24T04:37:31.364Z,96863.97
2023-11-24T04:40:03.572Z,96855.21
2023-11-24T04:42:36.118Z,96859.73
2023-11-24T04:45:12.223Z,96858.05
2023-11-24T04:47:44.571Z,96867.28
2023-11-24T04:50:17.491Z,96862.34
2023-11-24T04:52:49.360Z,96871.31
2023-11-24T04:55:21.146Z,96867.88
2023-11-24T04:57:52.995Z,96873.63
2023-11-24T05:00:24.865Z,96869.75
2023-11-24T05:02:56.813Z,96878.90
2023-11-24T05:05:29.019Z,96893.98
2023-11-24T05:08:00.923Z,96886.66
2023-11-24T05:10:32.720Z,96884.67
2023-11-24T05:13:04.575Z,96899.05
2023-11-24T05:15:36.441Z,96903.07
2023-11-24T05:18:09.035Z,96906.54
2023-11-24T05:20:40.871Z,96927.33
2023-11-24T05:23:15.379Z,96925.52
2023-11-24T05:25:47.199Z,96916.27
2023-11-24T05:28:19.067Z,96918.63
2023-11-24T05:30:50.909Z,96916.89
2023-11-24T05:33:22.740Z,96918.23
2023-11-24T05:35:54.560Z,96917.08
2023-11-24T05:38:26.388Z,96915.73
2023-11-24T05:40:58.159Z,96927.35
2023-11-24T05:43:30.136Z,96919.80
2023-11-24T05:46:02.153Z,96927.54
2023-11-24T05:48:34.112Z,96932.91
2023-11-24T05:51:06.554Z,96934.77
2023-11-24T05:53:38.422Z,96942.95
2023-11-24T05:56:11.240Z,96939.40
2023-11-24T05:58:43.082Z,96939.33
2023-11-24T06:01:14.950Z,96933.05
2023-11-24T06:03:47.139Z,96930.26
2023-11-24T06:06:19.230Z,96944.33
2023-11-24T06:08:51.146Z,96946.38
2023-11-24T06:11:22.922Z,96949.77
2023-11-24T06:13:54.830Z,96953.83
2023-11-24T06:16:26.652Z,96957.64
2023-11-24T06:19:01.904Z,96964.10
2023-11-24T06:21:35.019Z,96959.39
2023-11-24T06:24:07.876Z,96957.51
2023-11-24T06:26:40.267Z,96966.08
2023-11-24T06:29:12.052Z,96971.41
2023-11-24T06:31:43.870Z,96972.86
2023-11-24T06:34:15.693Z,96980.27
2023-11-24T06:36:47.701Z,96985.95
2023-11-24T06:39:21.194Z,96989.04
2023-11-24T06:41:54.840Z,96996.85
2023-11-24T06:44:27.379Z,97000.23
2023-11-24T06:47:01.231Z,97010.21
2023-11-24T06:49:33.957Z,97019.80
2023-11-24T06:52:06.354Z,97017.24
2023-11-24T06:54:38.276Z,97021.30
2023-11-24T06:57:10.066Z,97024.80
2023-11-24T06:59:41.879Z,97024.70
2023-11-24T07:02:14.213Z,97025.86
2023-11-24T07:04:46.890Z,97021.58
2023-11-24T07:07:18.742Z,97017.40
2023-11-24T07:09:50.695Z,97011.60
2023-11-24T07:12:22.551Z,97004.39
2023-11-24T07:14:54.331Z,97012.73
2023-11-24T07:17:26.150Z,97011.04
2023-11-24T07:19:58.056Z,97006.52
2023-11-24T07:22:31.212Z,96999.14
2023-11-24T07:25:03.187Z,96997.81
2023-11-24T07:27:35.127Z,96994.05
2023-11-24T07:30:08.649Z,96993.29
2023-11-24T07:32:40.548Z,96990.61
2023-11-24T07:35:15.184Z,96988.45
2023-11-24T07:37:47.540Z,96991.56
2023-11-24T07:40:19.513Z,96979.47
2023-11-24T07:42:51.416Z,96969.30
2023-11-24T07:45:23.616Z,96967.61
2023-11-24T07:47:55.446Z,96969.88
2023-11-24T07:50:27.315Z,96979.37
2023-11-24T07:52:59.168Z,96978.36
2023-11-24T07:55:31.357Z,96980.02
2023-11-24T07:58:03.268Z,96973.35
2023-11-24T08:00:35.562Z,96976.45
2023-11-24T08:03:07.627Z,96975.86
2023-11-24T08:05:40.040Z,96975.73
2023-11-24T08:08:12.228Z,96976.37
2023-11-24T08:10:45.117Z,96977.21
2023-11-24T08:13:17.008Z,96975.34
2023-11-24T08:15:48.968Z,96970.38
2023-11-24T08:18:20.832Z,96963.02
2023-11-24T08:20:54.022Z,96961.30
2023-11-24T08:23:25.880Z,96954.63
2023-11-24T08:25:57.683Z,96952.58
2023-11-24T08:28:29.682Z,96954.23
2023-11-24T08:31:02.856Z,96949.91
2023-11-24T08:33:34.767Z,96951.95
2023-11-24T08:36:07.986Z,96952.27
2023-11-24T08:38:39.890Z,96959.05
2023-11-24T08:41:26.576Z,96951.23
2023-11-24T08:44:07.420Z,96946.79
2023-11-24T08:46:39.446Z,96941.73
2023-11-24T08:49:12.492Z,96944.95
2023-11-24T08:51:44.814Z,96952.11
2023-11-24T08:54:16.795Z,96945.25
2023-11-24T08:56:48.628Z,96942.28
2023-11-24T08:59:20.505Z,96939.09
2023-11-24T09:01:52.686Z,96940.09
2023-11-24T09:04:27.966Z,96935.60
2023-11-24T09:06:59.787Z,96930.00
2023-11-24T09:09:34.490Z,96934.61
2023-11-24T09:12:07.738Z,96928.02
2023-11-24T09:14:41.527Z,96926.15
2023-11-24T09:17:13.892Z,96925.93
2023-11-24T09:19:45.712Z,96923.63
2023-11-24T09:22:18.165Z,96921.47
2023-11-24T09:24:50.533Z,96916.95
2023-11-24T09:27:22.782Z,96923.41
2023-11-24T09:29:54.645Z,96917.33
2023-11-24T09:32:26.929Z,96920.55
2023-11-24T09:34:59.011Z,96921.85
2023-11-24T09:37:31.000Z,96919.16
2023-11-24T09:40:03.931Z,96911.05
2023-11-24T09:42:45.564Z,96904.59
2023-11-24T09:45:20.673Z,96890.12
2023-11-24T09:47:53.878Z,96889.68
2023-11-24T09:50:28.055Z,96881.29
2023-11-24T09:53:00.617Z,96868.86
2023-11-24T09:55:32.473Z,96859.51
2023-11-24T09:58:04.370Z,96864.83
2023-11-24T10:00:36.386Z,96861.83
2023-11-24T10:03:10.686Z,96862.05
2023-11-24T10:05:42.635Z,96860.79
2023-11-24T10:08:14.437Z,96850.84
2023-11-24T10:10:46.437Z,96838.99
2023-11-24T10:13:18.676Z,96828.35
2023-11-24T10:15:54.668Z,96816.98
2023-11-24T10:18:29.354Z,96815.45
2023-11-24T10:21:01.521Z,96822.26
2023-11-24T10:23:33.592Z,96815.34
2023-11-24T10:26:15.327Z,96805.18
2023-11-24T10:28:47.459Z,96799.69
2023-11-24T10:31:20.865Z,96798.89
2023-11-24T10:33:53.250Z,96790.23
2023-11-24T10:36:27.051Z,96783.33
2023-11-24T10:39:01.370Z,96781.94
2023-11-24T10:41:32.348Z,96782.11
2023-11-24T10:44:05.412Z,96770.02
2023-11-24T10:46:45.122Z,96764.10
2023-11-24T10:49:27.170Z,96761.80
2023-11-24T10:52:02.842Z,96749.40
2023-11-24T10:54:39.896Z,96745.23
2023-11-24T10:57:14.542Z,96750.58
2023-11-24T10:59:47.559Z,96740.95
2023-11-24T11:02:20.113Z,96727.94
2023-11-24T11:05:03.138Z,96728.40
2023-11-24T11:07:53.982Z,96728.39
2023-11-24T11:10:32.126Z,96727.17
2023-11-24T11:13:05.397Z,96716.05
2023-11-24T11:15:39.675Z,96714.63
2023-11-24T11:18:15.398Z,96716.44
2023-11-24T11:20:47.604Z,96716.66
2023-11-24T11:23:19.374Z,96719.54
2023-11-24T11:25:54.849Z,96718.95
2023-11-24T11:28:40.583Z,96714.09
2023-11-24T11:31:29.095Z,96707.49
2023-11-24T11:34:14.893Z,96709.37
2023-11-24T11:36:55.672Z,96704.27
2023-11-24T11:39:31.503Z,96699.08
2023-11-24T11:42:03.592Z,96701.30
2023-11-24T11:44:40.743Z,96711.27
2023-11-24T11:47:25.611Z,96709.27
2023-11-24T11:49:58.961Z,96716.58
2023-11-24T11:52:32.202Z,96717.26
2023-11-24T11:55:06.704Z,96720.27
2023-11-24T11:57:38.536Z,96723.66
2023-11-24T12:00:14.658Z,96720.57
2023-11-24T12:02:49.480Z,96713.41
2023-11-24T12:05:23.022Z,96708.77
2023-11-24T12:07:55.704Z,96710.10
2023-11-24T12:10:30.867Z,96711.73
2023-11-24T12:13:06.258Z,96707.21
2023-11-24T12:15:39.114Z,96705.79
2023-11-24T12:18:17.181Z,96707.28
2023-11-24T12:20:49.949Z,96706.45
2023-11-24T12:23:24.626Z,96697.50
2023-11-24T12:25:56.616Z,96696.18
2023-11-24T12:28:28.450Z,96688.80
2023-11-24T12:31:04.128Z,96695.27
2023-11-24T12:33:36.384Z,96693.58
2023-11-24T12:36:10.006Z,96690.76
2023-11-24T12:38:41.791Z,96682.17
2023-11-24T12:41:13.847Z,96680.41
2023-11-24T12:43:51.158Z,96673.56
2023-11-24T12:46:25.110Z,96687.77
2023-11-24T12:49:05.942Z,96686.05
2023-11-24T12:51:37.934Z,96688.43
2023-11-24T12:54:10.039Z,96686.08
2023-11-24T12:56:41.878Z,96683.23
2023-11-24T12:59:14.129Z,96685.48
2023-11-24T13:01:45.955Z,96684.27
2023-11-24T13:04:17.925Z,96689.48
2023-11-24T13:06:50.869Z,96685.39
2023-11-24T13:09:23.789Z,96682.55
2023-11-24T13:11:59.272Z,96682.33
2023-11-24T13:14:34.396Z,96682.28
2023-11-24T13:17:06.961Z,96690.85
2023-11-24T13:19:38.816Z,96686.66
2023-11-24T13:22:10.992Z,96684.86
2023-11-24T13:24:43.191Z,96685.45
2023-11-24T13:27:15.092Z,96685.02
2023-11-24T13:29:47.785Z,96686.92
2023-11-24T13:32:19.622Z,96685.05
2023-11-24T13:34:51.832Z,96682.58
2023-11-24T13:37:23.675Z,96687.29
2023-11-24T13:39:55.906Z,96687.86
2023-11-24T13:42:28.914Z,96692.00
2023-11-24T13:45:00.750Z,96702.16
2023-11-24T13:47:33.052Z,96703.27
2023-11-24T13:50:05.973Z,96704.52
2023-11-24T13:52:37.889Z,96705.52
2023-11-24T13:55:12.388Z,96696.77
2023-11-24T13:57:45.831Z,96698.30
2023-11-24T14:00:20.549Z,96694.61
2023-11-24T14:02:52.490Z,96695.28
2023-11-24T14:05:24.404Z,96694.15
2023-11-24T14:07:56.232Z,96694.16
2023-11-24T14:10:28.455Z,96694.46
2023-11-24T14:13:00.346Z,96686.94
2023-11-24T14:15:32.170Z,96685.70
2023-11-24T14:18:07.947Z,96683.17
2023-11-24T14:20:41.197Z,96684.26
2023-11-24T14:23:14.462Z,96694.12
2023-11-24T14:25:46.258Z,96704.27
2023-11-24T14:28:18.934Z,96714.80
2023-11-24T14:30:52.474Z,96727.14
2023-11-24T14:33:26.097Z,96735.43
2023-11-24T14:35:57.861Z,96740.45
2023-11-24T14:38:31.100Z,96753.86
2023-11-24T14:41:08.414Z,96748.33
2023-11-24T14:43:41.407Z,96740.49
2023-11-24T14:46:13.656Z,96741.81
2023-11-24T14:48:46.103Z,96742.48
2023-11-24T14:51:18.623Z,96730.11
2023-11-24T14:53:51.535Z,96727.41
2023-11-24T14:56:24.464Z,96728.37
2023-11-24T14:58:56.284Z,96733.13
2023-11-24T15:01:33.536Z,96732.59
2023-11-24T15:04:09.010Z,96730.20
2023-11-24T15:06:40.973Z,96728.75
2023-11-24T15:09:12.786Z,96732.38
2023-11-24T15:11:45.178Z,96723.92
2023-11-24T15:14:17.236Z,96719.41
2023-11-24T15:16:55.907Z,96719.92
2023-11-24T15:19:28.133Z,96724.60
2023-11-24T15:22:04.798Z,96727.95
2023-11-24T15:24:37.837Z,96723.20
2023-11-24T15:27:09.739Z,96724.45
2023-11-24T15:29:41.927Z,96725.39
2023-11-24T15:32:19.933Z,96727.12
2023-11-24T15:34:52.799Z,96729.08
2023-11-24T15:37:24.986Z,96734.09
2023-11-24T15:39:59.860Z,96735.30
2023-11-24T15:42:32.836Z,96731.09
2023-11-24T15:45:06.840Z,96734.16
2023-11-24T15:47:40.581Z,96738.11
2023-11-24T15:50:15.755Z,96738.58
2023-11-24T15:52:47.873Z,96730.85
2023-11-24T15:55:24.887Z,96725.87
2023-11-24T15:57:56.792Z,96721.84
2023-11-24T16:00:33.318Z,96720.60
2023-11-24T16:03:05.273Z,96714.39
2023-11-24T16:05:41.895Z,96710.31
2023-11-24T16:08:14.442Z,96712.23
2023-11-24T16:10:47.898Z,96712.69
2023-11-24T16:13:20.544Z,96715.29
2023-11-24T16:15:53.101Z,96717.71
2023-11-24T16:18:34.931Z,96720.38
2023-11-24T16:21:08.480Z,96714.52
2023-11-24T16:23:40.344Z,96710.77
2023-11-24T16:26:12.234Z,96708.34
2023-11-24T16:28:44.857Z,96712.81
2023-11-24T16:31:16.942Z,96713.47
2023-11-24T16:33:48.934Z,96716.48
2023-11-24T16:36:21.703Z,96719.77
2023-11-24T16:38:54.127Z,96719.11
2023-11-24T16:41:26.045Z,96721.95
2023-11-24T16:44:01.157Z,96725.25
2023-11-24T16:46:33.243Z,96726.63
2023-11-24T16:49:06.701Z,96725.02
2023-11-24T16:51:40.189Z,96726.23
2023-11-24T16:54:12.041Z,96728.36
2023-11-24T16:56:43.829Z,96724.05
2023-11-24T16:59:19.420Z,96722.99
2023-11-24T17:01:51.662Z,96726.05
2023-11-24T17:04:25.093Z,96730.64
2023-11-24T17:06:57.518Z,96726.80
2023-11-24T17:09:29.399Z,96728.22
2023-11-24T17:12:01.275Z,96731.96
2023-11-24T17:14:33.123Z,96730.64
2023-11-24T17:17:06.795Z,96727.43
2023-11-24T17:19:37.124Z,96721.98
2023-11-24T17:22:09.185Z,96716.59
2023-11-24T17:24:41.057Z,96719.58
2023-11-24T17:27:14.590Z,96720.34
2023-11-24T17:29:46.444Z,96719.51
2023-11-24T17:32:18.814Z,96726.02
2023-11-24T17:34:50.732Z,96720.20
2023-11-24T17:37:22.602Z,96712.38
2023-11-24T17:39:54.475Z,96712.85
2023-11-24T17:42:26.310Z,96714.59
2023-11-24T17:44:59.893Z,96714.00
2023-11-24T17:47:30.486Z,96714.23
2023-11-24T17:50:02.315Z,96716.11
2023-11-24T17:52:34.116Z,96713.84
2023-11-24T17:55:06.655Z,96713.71
2023-11-24T17:57:38.939Z,96712.06
2023-11-24T18:00:14.482Z,96709.70
2023-11-24T18:02:46.417Z,96711.99
2023-11-24T18:05:18.433Z,96712.21
2023-11-24T18:07:50.256Z,96719.35
2023-11-24T18:10:22.772Z,96717.27
2023-11-24T18:12:55.632Z,96729.55
2023-11-24T18:15:28.298Z,96733.70
2023-11-24T18:18:00.651Z,96728.77
2023-11-24T18:20:34.679Z,96724.39
2023-11-24T18:23:06.519Z,96722.11
2023-11-24T18:25:40.162Z,96726.63
2023-11-24T18:28:15.181Z,96726.06
2023-11-24T18:30:47.084Z,96721.10
2023-11-24T18:33:20.049Z,96721.89
2023-11-24T18:35:52.561Z,96722.38
2023-11-24T18:38:25.213Z,96720.45
2023-11-24T18:40:58.660Z,96718.10
2023-11-24T18:43:37.216Z,96713.47
2023-11-24T18:46:12.192Z,96711.11
2023-11-24T18:48:44.054Z,96713.67
2023-11-24T18:51:15.972Z,96711.60
2023-11-24T18:53:47.844Z,96715.25
2023-11-24T18:56:23.343Z,96719.16
2023-11-24T18:58:55.934Z,96717.91
2023-11-24T19:01:27.784Z,96713.88
2023-11-24T19:03:59.712Z,96707.10
2023-11-24T19:06:32.701Z,96705.61
2023-11-24T19:09:04.676Z,96699.93
2023-11-24T19:11:36.476Z,96701.67
2023-11-24T19:14:09.232Z,96699.08
2023-11-24T19:16:45.107Z,96695.76
2023-11-24T19:19:17.667Z,96700.16
2023-11-24T19:21:49.582Z,96698.88
2023-11-24T19:24:21.381Z,96696.34
2023-11-24T19:26:54.461Z,96696.61
2023-11-24T19:29:26.331Z,96690.27
2023-11-24T19:31:58.233Z,96693.52
2023-11-24T19:34:30.131Z,96697.30
2023-11-24T19:37:01.999Z,96696.55
2023-11-24T19:39:36.499Z,96691.73
2023-11-24T19:42:09.002Z,96692.08
2023-11-24T19:44:40.956Z,96687.66
2023-11-24T19:47:12.844Z,96681.56
2023-11-24T19:49:47.068Z,96680.96
2023-11-24T19:52:19.225Z,96680.83
2023-11-24T19:54:51.244Z,96677.68
2023-11-24T19:57:23.449Z,96672.67
2023-11-24T19:59:56.672Z,96673.70
2023-11-24T20:02:28.658Z,96678.56
2023-11-24T20:05:00.585Z,96679.69
2023-11-24T20:07:32.496Z,96684.38
2023-11-24T20:10:06.230Z,96684.12
2023-11-24T20:12:38.330Z,96685.50
2023-11-24T20:15:11.388Z,96685.01
2023-11-24T20:17:44.455Z,96681.16
2023-11-24T20:20:16.457Z,96683.66
2023-11-24T20:22:48.372Z,96681.26
2023-11-24T20:25:20.343Z,96680.14
2023-11-24T20:27:52.233Z,96687.54
2023-11-24T20:30:24.037Z,96691.09
2023-11-24T20:32:57.385Z,96688.33
2023-11-24T20:35:30.674Z,96689.48
2023-11-24T20:38:03.420Z,96688.52
2023-11-24T20:40:35.267Z,96692.20
2023-11-24T20:43:07.333Z,96690.23
2023-11-24T20:45:41.767Z,96688.33
2023-11-24T20:48:17.579Z,96684.61
2023-11-24T20:50:50.293Z,96681.69
2023-11-24T20:53:22.112Z,96680.96
2023-11-24T20:55:53.961Z,96677.70
2023-11-24T20:58:25.935Z,96674.75
2023-11-24T21:00:57.867Z,96673.70
2023-11-24T21:03:30.359Z,96667.62
2023-11-24T21:06:02.241Z,96666.83
2023-11-24T21:08:34.077Z,96666.14
2023-11-24T21:11:05.966Z,96672.95
2023-11-24T21:13:38.191Z,96673.89
2023-11-24T21:16:10.593Z,96677.32
2023-11-24T21:18:43.917Z,96681.95
2023-11-24T21:21:17.176Z,96681.40
2023-11-24T21:23:48.981Z,96680.75
2023-11-24T21:26:21.434Z,96680.71
2023-11-24T21:28:53.302Z,96686.47
2023-11-24T21:31:25.164Z,96688.92
2023-11-24T21:33:57.213Z,96689.77
2023-11-24T21:36:29.075Z,96689.50
2023-11-24T21:39:03.120Z,96687.27
2023-11-24T21:41:37.783Z,96689.77
2023-11-24T21:44:09.816Z,96686.64
2023-11-24T21:46:41.739Z,96685.64
2023-11-24T21:49:13.624Z,96683.37
2023-11-24T21:51:45.514Z,96681.64
2023-11-24T21:54:17.358Z,96674.38
2023-11-24T21:56:49.145Z,96673.80
2023-11-24T21:59:20.937Z,96675.38
2023-11-24T22:01:56.460Z,96670.20
2023-11-24T22:04:28.524Z,96666.84
2023-11-24T22:07:00.525Z,96670.87
2023-11-24T22:09:33.089Z,96679.81
2023-11-24T22:12:05.181Z,96681.52
2023-11-24T22:14:37.601Z,96681.48
2023-11-24T22:17:09.674Z,96679.39
2023-11-24T22:19:42.178Z,96670.88
2023-11-24T22:22:14.071Z,96668.73
2023-11-24T22:24:45.937Z,96670.81
2023-11-24T22:27:18.389Z,96666.72
2023-11-24T22:29:58.071Z,96659.63
2023-11-24T22:32:36.680Z,96660.11
2023-11-24T22:35:10.049Z,96656.37
2023-11-24T22:37:41.890Z,96653.29
2023-11-24T22:40:14.504Z,96652.05
2023-11-24T22:42:46.525Z,96650.25
2023-11-24T22:45:18.437Z,96645.20
2023-11-24T22:47:51.880Z,96641.18
2023-11-24T22:50:23.744Z,96643.35
2023-11-24T22:52:55.529Z,96640.40
2023-11-24T22:55:27.377Z,96641.25
2023-11-24T22:57:59.721Z,96637.77
2023-11-24T23:00:37.025Z,96633.14
2023-11-24T23:03:09.230Z,96632.45
2023-11-24T23:05:43.383Z,96628.71
2023-11-24T23:08:16.330Z,96628.73
2023-11-24T23:10:49.223Z,96629.14
2023-11-24T23:13:21.572Z,96632.98
2023-11-24T23:15:53.435Z,96634.27
2023-11-24T23:18:25.319Z,96635.22
2023-11-24T23:20:57.247Z,96638.75
2023-11-24T23:23:29.073Z,96636.95
2023-11-24T23:26:00.907Z,96635.15
2023-11-24T23:28:33.033Z,96626.41
2023-11-24T23:31:07.227Z,96627.45
2023-11-24T23:33:39.840Z,96630.52
2023-11-24T23:36:14.312Z,96622.66
2023-11-24T23:38:47.695Z,96611.59
2023-11-24T23:41:22.125Z,96616.90
2023-11-24T23:43:54.255Z,96617.17
2023-11-24T23:46:26.256Z,96618.19
2023-11-24T23:48:58.747Z,96623.31
2023-11-24T23:51:30.566Z,96628.64
2023-11-24T23:54:04.174Z,96629.63
2023-11-24T23:56:34.514Z,96624.86
2023-11-24T23:59:06.553Z,96623.05
